Time;durP1;ratioP1;P1;durP2;ratioP2;P2;SDS_P1;SDS_P2;PMS_P1;PMS_P2;Temp;Humidity;BMP_temperature;BMP_pressure;BME280_temperature;BME280_humidity;BME280_pressure;Samples;Min_cycle;Max_cycle;Signal;HPM_P1;HPM_P2
2021/03/05 05:11:26;;;;;;;1.27;1.27;;;3.20;99.90;;;;;;5513392;23;20254;-76
2021/03/05 05:13:53;;;;;;;1.30;1.30;;;3.10;99.90;;;;;;4992798;28;20231;-75
2021/03/05 05:16:20;;;;;;;1.20;1.20;;;3.10;99.90;;;;;;4992481;28;20207;-75
2021/03/05 05:18:47;;;;;;;1.20;1.20;;;;;;;;;;4992346;28;20207;-77
2021/03/05 05:21:14;;;;;;;1.47;1.47;;;3.10;99.90;;;;;;4992693;28;20224;-77
2021/03/05 05:23:42;;;;;;;1.30;1.30;;;3.10;99.90;;;;;;4994776;28;20216;-78
2021/03/05 05:26:09;;;;;;;1.50;1.50;;;3.00;99.90;;;;;;4997190;28;20232;-78
2021/03/05 05:28:36;;;;;;;1.30;1.30;;;3.10;99.90;;;;;;4996186;28;20232;-78
2021/03/05 05:31:03;;;;;;;1.30;1.30;;;3.00;99.90;;;;;;4995107;28;20697;-77
2021/03/05 05:33:30;;;;;;;1.27;1.27;;;2.90;99.90;;;;;;4994812;28;20204;-78
2021/03/05 05:35:57;;;;;;;1.40;1.40;;;3.00;99.90;;;;;;4995018;28;20215;-79
2021/03/05 05:38:24;;;;;;;1.23;1.23;;;3.00;99.90;;;;;;4994618;28;20200;-78
2021/03/05 05:40:53;;;;;;;1.30;1.30;;;2.90;99.90;;;;;;4994869;28;20228;-79
2021/03/05 05:43:20;;;;;;;1.20;1.20;;;3.00;99.90;;;;;;4994607;28;20204;-80
2021/03/05 05:45:48;;;;;;;1.30;1.30;;;3.10;99.90;;;;;;4978191;28;20238;-78
2021/03/05 05:48:17;;;;;;;1.20;1.20;;;3.10;99.90;;;;;;4984701;28;20306;-77
2021/03/05 05:50:46;;;;;;;1.20;1.20;;;3.20;99.90;;;;;;4994827;28;20259;-76
2021/03/05 05:53:14;;;;;;;1.30;1.30;;;3.40;99.90;;;;;;4994504;28;20211;-77
2021/03/05 05:55:41;;;;;;;1.40;1.40;;;;;;;;;;4993410;28;20211;-77
2021/03/05 05:58:10;;;;;;;1.30;1.30;;;3.10;99.90;;;;;;4991943;28;20200;-76
2021/03/05 06:00:36;;;;;;;1.23;1.23;;;3.10;99.90;;;;;;4985163;28;20227;-76
2021/03/05 06:03:08;;;;;;;1.20;1.20;;;3.10;99.90;;;;;;4992526;28;20246;-77
2021/03/05 06:05:35;;;;;;;1.20;1.20;;;3.00;99.90;;;;;;4992099;28;20231;-78
2021/03/05 06:08:03;;;;;;;1.03;1.03;;;3.00;99.90;;;;;;4991341;28;20655;-77
2021/03/05 06:10:29;;;;;;;1.30;1.30;;;3.10;99.90;;;;;;4982070;28;20221;-77
2021/03/05 06:12:56;;;;;;;1.47;1.47;;;3.20;99.90;;;;;;4977479;28;20212;-77
2021/03/05 06:15:27;;;;;;;1.63;1.63;;;3.30;99.90;;;;;;4977547;28;20266;-77
2021/03/05 06:17:55;;;;;;;1.43;1.43;;;3.30;99.90;;;;;;4976769;28;20205;-76
2021/03/05 06:20:23;;;;;;;1.33;1.33;;;2.90;99.90;;;;;;4977054;28;20205;-77
2021/03/05 06:23:07;;;;;;;1.47;1.47;;;3.00;99.90;;;;;;4975474;28;20209;-75
2021/03/05 06:25:35;;;;;;;1.40;1.40;;;3.00;99.90;;;;;;4977251;28;20283;-76
2021/03/05 06:28:16;;;;;;;1.10;1.10;;;2.90;99.90;;;;;;4976442;28;20229;-77
2021/03/05 06:30:43;;;;;;;1.53;1.53;;;2.80;99.90;;;;;;4987078;28;20227;-77
2021/03/05 06:33:27;;;;;;;1.50;1.50;;;2.80;99.90;;;;;;4993336;28;20596;-75
2021/03/05 06:36:14;;;;;;;1.10;1.10;;;2.90;99.90;;;;;;4987676;28;20208;-75
2021/03/05 06:38:43;;;;;;;1.30;1.30;;;3.00;99.90;;;;;;4995313;28;20210;-74
2021/03/05 06:41:15;;;;;;;1.20;1.20;;;2.90;99.90;;;;;;4995308;28;20235;-76
2021/03/05 06:43:44;;;;;;;1.10;1.10;;;2.90;99.90;;;;;;4995182;28;20208;-76
2021/03/05 06:46:29;;;;;;;1.10;1.10;;;3.00;99.90;;;;;;4995151;28;20580;-76
2021/03/05 06:48:57;;;;;;;1.23;1.23;;;;;;;;;;4995243;28;20306;-76
2021/03/05 06:51:25;;;;;;;1.37;1.37;;;2.90;99.90;;;;;;4983547;28;20255;-76
2021/03/05 06:54:10;;;;;;;1.50;1.50;;;3.00;99.90;;;;;;4975607;28;20632;-76
2021/03/05 06:56:39;;;;;;;1.40;1.40;;;3.10;99.90;;;;;;4973442;28;20684;-76
2021/03/05 06:59:08;;;;;;;1.40;1.40;;;3.20;99.90;;;;;;4974988;28;20200;-75
2021/03/05 07:01:48;;;;;;;1.30;1.30;;;3.30;99.90;;;;;;4973854;28;20225;-76
2021/03/05 07:04:18;;;;;;;1.30;1.30;;;3.40;99.90;;;;;;4974745;28;20204;-75
2021/03/05 07:06:46;;;;;;;1.20;1.20;;;3.40;99.90;;;;;;4975447;28;20556;-76
2021/03/05 07:09:23;;;;;;;1.40;1.40;;;3.30;99.90;;;;;;4974902;28;20283;-76
2021/03/05 07:11:52;;;;;;;1.37;1.37;;;3.20;99.90;;;;;;4974856;28;20319;-75
2021/03/05 07:14:19;;;;;;;1.30;1.30;;;3.30;99.90;;;;;;4974947;28;20744;-76
2021/03/05 07:16:48;;;;;;;1.23;1.23;;;3.40;99.90;;;;;;4975151;28;20200;-75
2021/03/05 07:19:16;;;;;;;1.23;1.23;;;3.40;99.90;;;;;;4973651;28;20605;-75
2021/03/05 07:21:46;;;;;;;1.20;1.20;;;3.40;99.90;;;;;;4974725;28;20280;-76
2021/03/05 07:24:15;;;;;;;1.20;1.20;;;3.30;99.90;;;;;;4975058;28;20259;-76
2021/03/05 07:26:44;;;;;;;1.17;1.17;;;3.30;99.90;;;;;;4974839;28;20681;-76
2021/03/05 07:29:16;;;;;;;1.37;1.37;;;3.40;99.90;;;;;;4976654;28;20278;-76
2021/03/05 07:31:45;;;;;;;1.30;1.30;;;3.20;99.90;;;;;;4974626;28;20243;-76
2021/03/05 07:34:22;;;;;;;1.40;1.40;;;3.20;99.90;;;;;;4974548;28;20685;-76
2021/03/05 07:36:50;;;;;;;1.43;1.43;;;3.10;99.90;;;;;;4974651;28;20207;-75
2021/03/05 07:39:23;;;;;;;1.20;1.20;;;2.90;99.90;;;;;;4974640;28;20201;-76
2021/03/05 07:41:53;;;;;;;1.20;1.20;;;2.90;99.90;;;;;;4974503;28;20294;-75
2021/03/05 07:44:19;;;;;;;1.20;1.20;;;3.00;99.90;;;;;;4974476;28;20644;-76
2021/03/05 07:46:47;;;;;;;1.30;1.30;;;2.80;99.90;;;;;;4974487;28;20209;-76
2021/03/05 07:49:15;;;;;;;1.30;1.30;;;2.70;99.90;;;;;;4974423;28;20290;-76
2021/03/05 07:51:43;;;;;;;1.30;1.30;;;2.70;99.90;;;;;;4974193;28;20283;-76
2021/03/05 07:54:11;;;;;;;1.20;1.20;;;2.70;99.90;;;;;;4974239;28;20208;-76
2021/03/05 07:56:43;;;;;;;1.30;1.30;;;2.60;99.90;;;;;;4974414;28;20205;-76
2021/03/05 07:59:11;;;;;;;1.20;1.20;;;2.50;99.90;;;;;;4974192;28;20228;-76
2021/03/05 08:01:58;;;;;;;1.20;1.20;;;2.70;99.90;;;;;;4973839;28;20229;-76
2021/03/05 08:04:55;;;;;;;1.30;1.30;;;3.00;99.90;;;;;;4974485;28;20267;-76
2021/03/05 08:07:24;;;;;;;1.10;1.10;;;3.10;99.90;;;;;;4974229;28;20200;-76
2021/03/05 08:09:51;;;;;;;1.30;1.30;;;2.90;99.90;;;;;;4973874;28;20674;-76
2021/03/05 08:12:36;;;;;;;1.50;1.50;;;2.90;99.90;;;;;;4973772;28;20228;-77
2021/03/05 08:15:23;;;;;;;1.20;1.20;;;2.90;99.90;;;;;;4973997;28;20212;-76
2021/03/05 08:17:52;;;;;;;1.23;1.23;;;2.90;99.90;;;;;;4973750;28;20216;-76
2021/03/05 08:20:52;;;;;;;1.40;1.40;;;3.10;99.90;;;;;;4973772;28;20209;-77
2021/03/05 08:23:20;;;;;;;1.30;1.30;;;2.60;99.90;;;;;;4973742;28;20267;-77
2021/03/05 08:25:54;;;;;;;1.40;1.40;;;2.50;99.90;;;;;;4973881;28;20207;-76
2021/03/05 08:28:46;;;;;;;1.40;1.40;;;2.30;99.90;;;;;;4973611;28;20208;-77
2021/03/05 08:31:41;;;;;;;1.30;1.30;;;2.30;99.90;;;;;;4973274;28;20784;-77
2021/03/05 08:34:28;;;;;;;1.27;1.27;;;2.20;99.90;;;;;;4940085;28;20201;-76
2021/03/05 08:36:56;;;;;;;1.33;1.33;;;2.20;99.90;;;;;;4973582;28;20204;-75
2021/03/05 08:39:32;;;;;;;1.30;1.30;;;2.30;99.90;;;;;;4973291;28;20248;-75
2021/03/05 08:42:35;;;;;;;1.30;1.30;;;2.30;99.90;;;;;;4973520;28;20290;-76
2021/03/05 08:45:13;;;;;;;1.20;1.20;;;2.40;99.90;;;;;;4942661;28;20640;-76
2021/03/05 08:47:41;;;;;;;1.30;1.30;;;2.50;99.90;;;;;;4973696;28;20220;-76
2021/03/05 08:50:10;;;;;;;1.50;1.50;;;2.40;99.90;;;;;;4973456;28;20208;-76
2021/03/05 08:52:40;;;;;;;1.20;1.20;;;2.60;99.90;;;;;;4973434;28;20267;-76
2021/03/05 08:55:08;;;;;;;1.20;1.20;;;2.70;99.90;;;;;;4973423;28;20236;-76
2021/03/05 08:57:42;;;;;;;1.10;1.10;;;2.90;99.90;;;;;;4973180;28;20205;-75
2021/03/05 09:00:14;;;;;;;1.23;1.23;;;3.00;99.90;;;;;;4973352;28;20217;-75
2021/03/05 09:02:45;;;;;;;1.60;1.60;;;3.30;99.90;;;;;;4973460;28;20208;-76
2021/03/05 09:05:13;;;;;;;1.30;1.30;;;3.50;99.90;;;;;;4973309;28;20208;-76
2021/03/05 09:07:48;;;;;;;1.50;1.50;;;3.50;99.90;;;;;;4973357;28;20201;-76
2021/03/05 09:10:16;;;;;;;1.50;1.50;;;3.50;99.90;;;;;;4972879;28;20267;-76
2021/03/05 09:12:58;;;;;;;1.20;1.20;;;3.40;99.30;;;;;;4973369;28;20212;-75
2021/03/05 09:15:30;;;;;;;1.20;1.20;;;3.40;98.50;;;;;;4973132;28;20204;-76
2021/03/05 09:17:57;;;;;;;1.30;1.30;;;3.50;98.40;;;;;;4973099;28;20573;-76
2021/03/05 09:20:35;;;;;;;1.10;1.10;;;4.10;99.90;;;;;;4973015;28;20378;-76
2021/03/05 09:23:25;;;;;;;1.30;1.30;;;4.00;98.50;;;;;;4973220;28;20204;-76
2021/03/05 09:25:54;;;;;;;1.30;1.30;;;4.30;98.30;;;;;;4973596;28;20216;-76
2021/03/05 09:28:24;;;;;;;1.33;1.33;;;4.50;99.90;;;;;;4973408;28;20247;-75
2021/03/05 09:30:54;;;;;;;1.30;1.30;;;4.80;98.00;;;;;;4972911;28;20232;-75
2021/03/05 09:33:30;;;;;;;1.23;1.23;;;4.80;96.70;;;;;;4973191;28;20211;-75
2021/03/05 09:36:01;;;;;;;1.10;1.10;;;4.70;97.00;;;;;;4973249;28;20200;-75
2021/03/05 09:38:29;;;;;;;1.30;1.30;;;4.60;95.40;;;;;;4972913;28;20221;-77
2021/03/05 09:41:12;;;;;;;1.20;1.20;;;4.40;95.00;;;;;;4973239;28;20279;-74
2021/03/05 09:43:40;;;;;;;1.23;1.23;;;4.40;96.40;;;;;;4976132;28;20227;-75
2021/03/05 09:46:18;;;;;;;1.60;1.60;;;4.30;94.20;;;;;;4976860;28;20263;-75
2021/03/05 09:48:45;;;;;;;1.20;1.20;;;4.10;95.30;;;;;;4976747;28;20208;-75
2021/03/05 09:51:13;;;;;;;1.40;1.40;;;3.90;95.00;;;;;;4976533;28;20227;-75
2021/03/05 09:53:51;;;;;;;1.23;1.23;;;3.90;94.20;;;;;;4976563;28;20697;-75
2021/03/05 09:56:18;;;;;;;1.20;1.20;;;3.90;94.30;;;;;;4976522;28;21502;-75
2021/03/05 09:58:54;;;;;;;1.10;1.10;;;4.00;93.00;;;;;;4976490;28;20276;-75
2021/03/05 10:01:21;;;;;;;1.30;1.30;;;4.20;91.30;;;;;;4976303;28;20606;-75
2021/03/05 10:03:52;;;;;;;1.20;1.20;;;4.50;91.10;;;;;;4976437;28;20212;-75
2021/03/05 10:06:20;;;;;;;1.30;1.30;;;4.80;90.20;;;;;;4976248;28;20666;-75
2021/03/05 10:08:47;;;;;;;1.40;1.40;;;4.90;90.10;;;;;;4976756;28;20204;-74
2021/03/05 10:11:14;;;;;;;1.30;1.30;;;5.20;88.40;;;;;;4976107;28;20237;-75
2021/03/05 10:13:44;;;;;;;1.30;1.30;;;5.30;89.50;;;;;;4976254;28;20204;-75
2021/03/05 10:16:16;;;;;;;1.20;1.20;;;5.60;89.20;;;;;;4976616;28;20255;-74
2021/03/05 10:18:44;;;;;;;1.30;1.30;;;5.80;84.60;;;;;;4976091;28;20307;-75
2021/03/05 10:21:12;;;;;;;1.33;1.33;;;6.00;85.00;;;;;;4975884;28;20225;-75
2021/03/05 10:23:40;;;;;;;1.10;1.10;;;6.00;83.30;;;;;;4976116;28;20208;-75
2021/03/05 10:26:19;;;;;;;1.20;1.20;;;6.10;83.70;;;;;;4976019;28;20208;-74
2021/03/05 10:28:52;;;;;;;1.30;1.30;;;5.90;82.70;;;;;;4976302;28;20207;-75
2021/03/05 10:31:21;;;;;;;1.10;1.10;;;5.60;79.10;;;;;;4975494;28;20221;-74
2021/03/05 10:33:48;;;;;;;1.20;1.20;;;5.40;79.70;;;;;;4976136;28;20213;-75
2021/03/05 10:36:15;;;;;;;1.20;1.20;;;5.20;77.30;;;;;;4975953;28;20208;-75
2021/03/05 10:38:43;;;;;;;1.30;1.30;;;5.30;79.20;;;;;;4975620;28;20224;-75
2021/03/05 10:41:10;;;;;;;1.30;1.30;;;5.30;78.60;;;;;;4975676;28;20225;-77
2021/03/05 10:43:39;;;;;;;1.30;1.30;;;5.40;79.80;;;;;;4975576;28;20639;-75
2021/03/05 10:46:08;;;;;;;1.40;1.40;;;5.50;79.90;;;;;;4975456;28;20208;-76
2021/03/05 10:48:36;;;;;;;1.40;1.40;;;5.50;78.50;;;;;;4976010;28;20196;-76
2021/03/05 10:51:03;;;;;;;1.20;1.20;;;5.50;77.30;;;;;;4975548;28;20229;-76
2021/03/05 10:53:30;;;;;;;1.40;1.40;;;5.60;77.00;;;;;;4975213;28;20205;-76
2021/03/05 10:55:57;;;;;;;1.20;1.20;;;5.80;77.40;;;;;;4975307;28;20263;-76
2021/03/05 10:58:23;;;;;;;1.33;1.33;;;6.10;78.10;;;;;;4975165;28;20224;-76
2021/03/05 11:00:51;;;;;;;1.20;1.20;;;6.40;77.00;;;;;;4975670;28;20225;-75
2021/03/05 11:03:19;;;;;;;1.20;1.20;;;6.50;76.40;;;;;;4975358;28;20300;-78
2021/03/05 11:05:47;;;;;;;1.20;1.20;;;6.30;75.00;;;;;;4975911;28;20279;-76
2021/03/05 11:08:17;;;;;;;1.20;1.20;;;5.90;74.20;;;;;;4975225;28;20259;-76
2021/03/05 11:10:44;;;;;;;1.10;1.10;;;5.80;76.70;;;;;;4975154;28;20377;-75
2021/03/05 11:13:11;;;;;;;1.27;1.27;;;5.90;77.70;;;;;;4975000;28;20228;-76
2021/03/05 11:15:38;;;;;;;1.00;1.00;;;6.00;80.20;;;;;;4975337;28;20212;-74
2021/03/05 11:18:06;;;;;;;1.10;1.10;;;6.20;75.60;;;;;;4975100;28;20228;-74
2021/03/05 11:20:33;;;;;;;1.20;1.20;;;6.10;75.90;;;;;;4975013;28;20228;-75
2021/03/05 11:23:01;;;;;;;1.10;1.10;;;6.00;77.50;;;;;;4975339;28;20236;-74
2021/03/05 11:25:27;;;;;;;1.43;1.43;;;6.00;77.20;;;;;;4974657;28;20205;-73
2021/03/05 11:27:54;;;;;;;1.33;1.33;;;5.90;75.90;;;;;;4974698;28;20251;-73
2021/03/05 11:30:23;;;;;;;1.40;1.40;;;5.40;96.80;;;;;;4974885;28;20202;-74
2021/03/05 11:32:50;;;;;;;1.40;1.40;;;5.50;77.50;;;;;;4974726;28;20205;-73
2021/03/05 11:35:17;;;;;;;1.17;1.17;;;5.40;76.70;;;;;;4974699;28;20295;-74
2021/03/05 11:37:44;;;;;;;1.40;1.40;;;5.30;73.00;;;;;;4974642;28;20209;-74
2021/03/05 11:40:13;;;;;;;1.20;1.20;;;5.40;95.60;;;;;;4974149;28;20225;-74
2021/03/05 11:42:40;;;;;;;1.20;1.20;;;5.40;75.00;;;;;;4974434;28;20621;-74
2021/03/05 11:45:08;;;;;;;1.30;1.30;;;5.50;74.60;;;;;;4974621;28;20212;-74
2021/03/05 11:47:35;;;;;;;1.50;1.50;;;5.60;75.10;;;;;;4974669;28;20240;-74
2021/03/05 11:50:06;;;;;;;1.30;1.30;;;5.80;74.90;;;;;;4974644;28;20464;-74
2021/03/05 11:52:33;;;;;;;1.30;1.30;;;5.90;72.90;;;;;;4974174;28;20236;-75
2021/03/05 11:55:00;;;;;;;1.37;1.37;;;6.40;73.30;;;;;;4974196;28;20329;-74
2021/03/05 11:57:28;;;;;;;1.13;1.13;;;6.60;72.00;;;;;;4974324;28;20200;-74
2021/03/05 11:59:55;;;;;;;1.10;1.10;;;6.70;71.20;;;;;;4974878;28;20232;-74
2021/03/05 12:02:22;;;;;;;1.03;1.03;;;6.60;70.00;;;;;;4974487;28;20224;-75
2021/03/05 12:04:49;;;;;;;0.93;0.93;;;6.50;70.40;;;;;;4973516;28;20212;-73
2021/03/05 12:07:15;;;;;;;1.20;1.20;;;6.20;73.70;;;;;;4973958;28;20204;-74
2021/03/05 12:09:42;;;;;;;1.10;1.10;;;6.00;74.20;;;;;;4973987;28;20252;-74
2021/03/05 12:12:11;;;;;;;1.30;1.30;;;5.80;73.70;;;;;;4973710;28;20652;-74
2021/03/05 12:14:41;;;;;;;1.20;1.20;;;5.80;73.50;;;;;;4974016;28;20207;-73
2021/03/05 12:17:08;;;;;;;1.20;1.20;;;6.00;70.10;;;;;;4973859;28;20207;-74
2021/03/05 12:19:35;;;;;;;1.10;1.10;;;6.00;71.80;;;;;;4973738;28;20247;-74
2021/03/05 12:22:02;;;;;;;1.40;1.40;;;5.90;71.30;;;;;;4973512;28;20228;-74
2021/03/05 12:24:30;;;;;;;1.20;1.20;;;6.00;72.20;;;;;;4974098;28;20200;-74
2021/03/05 12:26:57;;;;;;;1.30;1.30;;;6.10;71.70;;;;;;4973838;28;20208;-74
2021/03/05 12:29:24;;;;;;;1.10;1.10;;;5.90;70.60;;;;;;4973776;28;20266;-74
2021/03/05 12:31:51;;;;;;;1.10;1.10;;;6.10;73.60;;;;;;4973635;28;20275;-74
2021/03/05 12:34:19;;;;;;;0.97;0.97;;;6.30;71.20;;;;;;4973636;28;20619;-74
2021/03/05 12:36:47;;;;;;;1.23;1.23;;;6.50;71.10;;;;;;4974256;28;20662;-73
2021/03/05 12:39:14;;;;;;;1.30;1.30;;;6.60;70.50;;;;;;4973622;28;20271;-74
2021/03/05 12:41:41;;;;;;;1.10;1.10;;;6.60;70.20;;;;;;4973400;28;20224;-74
2021/03/05 12:44:10;;;;;;;1.10;1.10;;;6.50;71.60;;;;;;4973841;28;20200;-74
2021/03/05 12:46:37;;;;;;;1.20;1.20;;;6.60;71.60;;;;;;4973594;28;20307;-74
2021/03/05 12:49:05;;;;;;;1.10;1.10;;;6.40;71.20;;;;;;4973359;28;20682;-74
2021/03/05 12:51:32;;;;;;;1.20;1.20;;;;;;;;;;4973305;28;20232;-74
2021/03/05 12:54:00;;;;;;;1.20;1.20;;;5.90;69.40;;;;;;4974033;28;20275;-73
2021/03/05 12:56:27;;;;;;;1.13;1.13;;;5.70;71.70;;;;;;4975005;28;20204;-73
2021/03/05 12:58:53;;;;;;;1.20;1.20;;;5.50;71.90;;;;;;4973964;28;20221;-75
2021/03/05 13:01:20;;;;;;;1.40;1.40;;;5.50;73.40;;;;;;4973172;28;20256;-73
2021/03/05 13:03:47;;;;;;;1.40;1.40;;;5.70;70.50;;;;;;4973427;28;20212;-73
2021/03/05 13:06:15;;;;;;;1.40;1.40;;;6.00;69.20;;;;;;4973651;28;20204;-73
2021/03/05 13:08:48;;;;;;;1.20;1.20;;;6.20;67.90;;;;;;4973384;28;20228;-73
2021/03/05 13:11:15;;;;;;;1.23;1.23;;;6.30;69.80;;;;;;4972925;28;20240;-75
2021/03/05 13:13:42;;;;;;;1.10;1.10;;;6.60;70.10;;;;;;4973192;28;20212;-74
2021/03/05 13:16:17;;;;;;;1.10;1.10;;;6.60;70.10;;;;;;4974515;28;20211;-72
2021/03/05 13:18:44;;;;;;;1.00;1.00;;;6.40;69.00;;;;;;4977232;28;20220;-73
2021/03/05 13:21:12;;;;;;;1.37;1.37;;;6.30;69.70;;;;;;4977187;28;20280;-74
2021/03/05 13:23:40;;;;;;;1.17;1.17;;;6.10;66.60;;;;;;4976885;28;20204;-75
2021/03/05 13:26:11;;;;;;;1.10;1.10;;;6.10;68.60;;;;;;4977106;28;20204;-73
2021/03/05 13:28:39;;;;;;;0.90;0.90;;;6.30;68.30;;;;;;4976821;28;20216;-72
2021/03/05 13:31:06;;;;;;;1.30;1.30;;;6.60;67.60;;;;;;4977147;28;20291;-73
2021/03/05 13:33:34;;;;;;;1.13;1.13;;;6.60;65.90;;;;;;4977232;28;20291;-73
2021/03/05 13:36:01;;;;;;;1.17;1.17;;;6.80;65.30;;;;;;4985982;28;20290;-74
2021/03/05 13:38:28;;;;;;;1.00;1.00;;;6.70;65.50;;;;;;4996008;28;20219;-73
2021/03/05 13:40:57;;;;;;;1.20;1.20;;;6.50;66.70;;;;;;4996531;28;20247;-74
2021/03/05 13:43:24;;;;;;;1.10;1.10;;;6.50;67.60;;;;;;4996260;28;20628;-73
2021/03/05 13:45:51;;;;;;;1.20;1.20;;;6.60;67.60;;;;;;4996343;28;20258;-74
2021/03/05 13:48:19;;;;;;;1.10;1.10;;;6.60;65.30;;;;;;4996052;28;20207;-74
2021/03/05 13:50:46;;;;;;;1.00;1.00;;;6.70;65.20;;;;;;4996028;28;20228;-73
2021/03/05 13:53:13;;;;;;;1.40;1.40;;;6.90;65.60;;;;;;4995804;28;20212;-74
2021/03/05 13:55:40;;;;;;;1.00;1.00;;;6.90;65.40;;;;;;4995918;28;20262;-74
2021/03/05 13:58:08;;;;;;;1.10;1.10;;;7.30;87.80;;;;;;4995404;28;20207;-73
2021/03/05 14:00:35;;;;;;;1.20;1.20;;;7.20;66.70;;;;;;4983949;28;20224;-73
2021/03/05 14:03:04;;;;;;;1.00;1.00;;;7.40;65.30;;;;;;4975866;28;20245;-74
2021/03/05 14:05:31;;;;;;;1.10;1.10;;;7.70;65.60;;;;;;4974972;28;20251;-73
2021/03/05 14:07:58;;;;;;;1.00;1.00;;;7.60;64.30;;;;;;4974774;28;20204;-74
2021/03/05 14:10:25;;;;;;;1.00;1.00;;;7.30;84.60;;;;;;4974719;28;20348;-74
2021/03/05 14:12:52;;;;;;;1.05;1.05;;;7.30;63.60;;;;;;4974654;28;20274;-74
2021/03/05 14:15:21;;;;;;;1.00;1.00;;;7.30;62.60;;;;;;4974810;28;20204;-74
2021/03/05 14:17:48;;;;;;;1.30;1.30;;;7.40;64.20;;;;;;4974502;28;20524;-74
2021/03/05 14:20:15;;;;;;;1.10;1.10;;;7.30;85.60;;;;;;4976219;28;20724;-74
2021/03/05 14:22:43;;;;;;;1.17;1.17;;;7.20;63.90;;;;;;4975543;28;20212;-74
2021/03/05 14:25:11;;;;;;;1.30;1.30;;;7.20;65.90;;;;;;4975988;28;20208;-74
2021/03/05 14:27:38;;;;;;;1.20;1.20;;;6.80;63.90;;;;;;4975429;28;20205;-74
2021/03/05 14:30:06;;;;;;;1.20;1.20;;;6.40;64.10;;;;;;4975977;28;20197;-74
2021/03/05 14:32:34;;;;;;;1.37;1.37;;;6.30;62.90;;;;;;4975676;28;20272;-74
2021/03/05 14:35:01;;;;;;;1.20;1.20;;;6.20;63.70;;;;;;4975787;28;20205;-76
2021/03/05 14:37:29;;;;;;;1.20;1.20;;;;;;;;;;4985896;28;20778;-77
2021/03/05 14:39:56;;;;;;;1.50;1.50;;;6.30;62.20;;;;;;4986900;28;20220;-76
2021/03/05 14:42:24;;;;;;;1.20;1.20;;;;;;;;;;4975828;28;20236;-77
2021/03/05 14:44:51;;;;;;;1.00;1.00;;;6.70;62.70;;;;;;4976228;28;20205;-77
2021/03/05 14:47:18;;;;;;;1.20;1.20;;;7.10;83.00;;;;;;4986744;28;20223;-80
2021/03/05 14:49:46;;;;;;;1.10;1.10;;;7.10;61.30;;;;;;4987210;28;20203;-76
2021/03/05 14:52:14;;;;;;;1.10;1.10;;;7.00;59.10;;;;;;4987907;28;20717;-78
2021/03/05 14:54:41;;;;;;;1.20;1.20;;;7.10;60.40;;;;;;4979417;28;20200;-75
2021/03/05 14:57:08;;;;;;;1.30;1.30;;;7.30;60.90;;;;;;4978928;28;20588;-78
2021/03/05 14:59:35;;;;;;;1.27;1.27;;;7.40;61.50;;;;;;4975757;28;20295;-77
2021/03/05 15:02:03;;;;;;;1.00;1.00;;;7.30;61.20;;;;;;4975584;28;20224;-77
2021/03/05 15:04:31;;;;;;;1.10;1.10;;;7.40;62.30;;;;;;4987157;28;20227;-77
2021/03/05 15:06:58;;;;;;;0.80;0.80;;;7.30;62.50;;;;;;4994506;28;20215;-75
2021/03/05 15:09:25;;;;;;;1.13;1.13;;;7.10;63.40;;;;;;4994284;28;20759;-77
2021/03/05 15:12:08;;;;;;;1.23;1.23;;;7.00;62.10;;;;;;4994800;28;20608;-77
2021/03/05 15:14:35;;;;;;;1.17;1.17;;;7.00;62.70;;;;;;4975104;28;20262;-77
2021/03/05 15:17:02;;;;;;;1.07;1.07;;;7.10;63.90;;;;;;4983956;28;20207;-77
2021/03/05 15:19:29;;;;;;;1.17;1.17;;;7.10;63.20;;;;;;4994577;28;20234;-76
2021/03/05 15:21:56;;;;;;;1.30;1.30;;;7.00;64.70;;;;;;4993845;28;20219;-77
2021/03/05 15:24:24;;;;;;;1.30;1.30;;;7.20;63.70;;;;;;4994208;28;20207;-77
2021/03/05 15:26:51;;;;;;;1.00;1.00;;;7.30;63.90;;;;;;4994907;28;20207;-76
2021/03/05 15:29:18;;;;;;;1.10;1.10;;;7.30;84.60;;;;;;4993749;28;20622;-76
2021/03/05 15:31:46;;;;;;;1.17;1.17;;;7.40;62.60;;;;;;4993884;28;20705;-77
2021/03/05 15:34:13;;;;;;;1.17;1.17;;;7.30;63.50;;;;;;4993084;28;20204;-79
2021/03/05 15:36:40;;;;;;;1.30;1.30;;;7.20;63.50;;;;;;4997979;28;20192;-81
2021/03/05 15:39:07;;;;;;;1.10;1.10;;;7.00;64.50;;;;;;4996095;28;20275;-77
2021/03/05 15:41:35;;;;;;;1.10;1.10;;;6.70;65.10;;;;;;4994900;28;20228;-77
2021/03/05 15:44:02;;;;;;;1.13;1.13;;;6.50;67.50;;;;;;4996386;28;20263;-80
2021/03/05 15:46:29;;;;;;;1.10;1.10;;;;;;;;;;5000354;28;20635;-79
2021/03/05 15:48:57;;;;;;;1.00;1.00;;;6.10;72.30;;;;;;5004616;28;20218;-78
2021/03/05 15:51:24;;;;;;;1.37;1.37;;;5.90;73.60;;;;;;5009391;28;20282;-79
2021/03/05 15:53:52;;;;;;;1.00;1.00;;;5.70;75.30;;;;;;5009423;28;20219;-79
2021/03/05 15:56:19;;;;;;;1.10;1.10;;;5.70;75.10;;;;;;4999650;28;20220;-79
2021/03/05 15:58:47;;;;;;;1.10;1.10;;;5.70;74.70;;;;;;5006123;28;20208;-79
2021/03/05 16:01:14;;;;;;;1.00;1.00;;;5.60;76.40;;;;;;5002660;28;20224;-79
2021/03/05 16:03:41;;;;;;;1.20;1.20;;;5.60;75.10;;;;;;5000383;28;20700;-78
2021/03/05 16:06:08;;;;;;;1.10;1.10;;;5.50;75.60;;;;;;5001067;28;20204;-77
2021/03/05 16:08:36;;;;;;;1.20;1.20;;;5.50;74.50;;;;;;4993741;28;20200;-76
2021/03/05 16:11:04;;;;;;;1.10;1.10;;;;;;;;;;4993259;28;20232;-77
2021/03/05 16:13:31;;;;;;;1.10;1.10;;;5.40;73.70;;;;;;4993973;28;20613;-78
2021/03/05 16:15:58;;;;;;;1.10;1.10;;;5.30;74.70;;;;;;4994430;28;20200;-78
2021/03/05 16:18:25;;;;;;;1.00;1.00;;;5.20;93.60;;;;;;4994408;28;20235;-78
2021/03/05 16:20:53;;;;;;;1.20;1.20;;;;;;;;;;4993320;28;20311;-76
2021/03/05 16:23:20;;;;;;;1.20;1.20;;;5.30;75.30;;;;;;4984484;28;20249;-76
2021/03/05 16:25:47;;;;;;;1.20;1.20;;;5.20;75.30;;;;;;4975215;28;20201;-75
2021/03/05 16:28:14;;;;;;;1.10;1.10;;;5.20;75.50;;;;;;4973343;28;20267;-76
2021/03/05 16:30:41;;;;;;;1.10;1.10;;;5.20;76.70;;;;;;4973413;28;20221;-75
2021/03/05 16:33:09;;;;;;;1.20;1.20;;;5.00;94.70;;;;;;4978168;28;20207;-76
2021/03/05 16:35:38;;;;;;;1.20;1.20;;;5.00;78.80;;;;;;4983225;28;20200;-76
2021/03/05 16:38:05;;;;;;;1.10;1.10;;;5.00;77.80;;;;;;4992601;28;20204;-76
2021/03/05 16:40:32;;;;;;;1.20;1.20;;;4.90;77.90;;;;;;4986787;28;20227;-77
2021/03/05 16:42:59;;;;;;;1.10;1.10;;;5.00;78.30;;;;;;4983777;28;20533;-77
2021/03/05 16:45:26;;;;;;;1.30;1.30;;;4.90;78.80;;;;;;4981134;28;20271;-77
2021/03/05 16:48:09;;;;;;;1.10;1.10;;;4.90;79.50;;;;;;4973139;28;20565;-76
2021/03/05 16:50:36;;;;;;;1.10;1.10;;;4.90;78.80;;;;;;4991209;28;20274;-76
2021/03/05 16:53:03;;;;;;;1.03;1.03;;;4.80;79.00;;;;;;4992942;28;20217;-77
2021/03/05 16:55:31;;;;;;;1.20;1.20;;;4.80;79.10;;;;;;4992698;28;20263;-77
2021/03/05 16:57:58;;;;;;;1.20;1.20;;;4.70;78.60;;;;;;4993235;28;20673;-78
2021/03/05 17:00:25;;;;;;;1.30;1.30;;;4.60;95.30;;;;;;4992518;28;20279;-75
2021/03/05 17:02:52;;;;;;;1.13;1.13;;;4.70;79.20;;;;;;4992203;28;20620;-74
2021/03/05 17:05:22;;;;;;;1.27;1.27;;;4.70;79.80;;;;;;4977071;28;20200;-76
2021/03/05 17:07:50;;;;;;;1.20;1.20;;;4.60;79.80;;;;;;4992770;28;20207;-77
2021/03/05 17:10:18;;;;;;;1.10;1.10;;;4.70;95.90;;;;;;4986646;28;20544;-74
2021/03/05 17:12:46;;;;;;;1.20;1.20;;;4.60;80.10;;;;;;4992744;28;20193;-76
2021/03/05 17:15:14;;;;;;;1.20;1.20;;;4.60;81.40;;;;;;4992775;28;20204;-76
2021/03/05 17:17:42;;;;;;;1.33;1.33;;;4.70;82.00;;;;;;4992326;28;20200;-73
2021/03/05 17:20:11;;;;;;;1.20;1.20;;;4.70;82.90;;;;;;4992107;28;20668;-73
2021/03/05 17:22:39;;;;;;;1.00;1.00;;;4.80;82.90;;;;;;4991560;28;20204;-74
2021/03/05 17:25:07;;;;;;;1.00;1.00;;;4.80;84.50;;;;;;4992663;28;20299;-75
2021/03/05 17:27:34;;;;;;;1.10;1.10;;;4.80;85.30;;;;;;4981861;28;20732;-78
2021/03/05 17:30:01;;;;;;;1.00;1.00;;;4.80;85.20;;;;;;4975216;28;20267;-78
2021/03/05 17:32:29;;;;;;;1.20;1.20;;;4.80;85.40;;;;;;4973398;28;20232;-76
2021/03/05 17:34:56;;;;;;;1.20;1.20;;;4.70;85.40;;;;;;4986077;28;20231;-82
2021/03/05 17:37:23;;;;;;;1.10;1.10;;;4.70;86.90;;;;;;4986307;28;20208;-77
2021/03/05 17:39:50;;;;;;;1.20;1.20;;;4.60;85.50;;;;;;4983713;28;20681;-78
2021/03/05 17:42:17;;;;;;;1.10;1.10;;;4.50;86.30;;;;;;4987289;28;20640;-81
2021/03/05 17:44:44;;;;;;;1.00;1.00;;;4.60;89.90;;;;;;4995551;28;20755;-81
2021/03/05 17:47:12;;;;;;;1.10;1.10;;;;;;;;;;4994889;28;20231;-78
2021/03/05 17:49:39;;;;;;;1.20;1.20;;;4.50;89.00;;;;;;4991811;28;20196;-79
2021/03/05 17:52:06;;;;;;;1.10;1.10;;;4.50;89.70;;;;;;4975612;28;20648;-80
2021/03/05 17:54:34;;;;;;;1.20;1.20;;;4.50;90.40;;;;;;4975406;28;20204;-79
2021/03/05 17:57:05;;;;;;;1.20;1.20;;;4.40;90.60;;;;;;4974926;28;20347;-80
2021/03/05 17:59:31;;;;;;;1.10;1.10;;;4.50;91.80;;;;;;4975088;28;20251;-79
2021/03/05 18:01:58;;;;;;;1.20;1.20;;;4.40;92.20;;;;;;4979896;28;20216;-80
2021/03/05 18:04:25;;;;;;;1.20;1.20;;;4.40;92.30;;;;;;4981937;28;20207;-77
2021/03/05 18:06:52;;;;;;;1.10;1.10;;;4.30;92.10;;;;;;4991422;28;20658;-78
2021/03/05 18:09:19;;;;;;;1.30;1.30;;;4.30;91.90;;;;;;4977149;28;20638;-78
2021/03/05 18:11:46;;;;;;;1.20;1.20;;;4.20;92.40;;;;;;4977579;28;20245;-77
2021/03/05 18:14:28;;;;;;;1.10;1.10;;;4.20;93.40;;;;;;4976721;28;20228;-79
2021/03/05 18:16:58;;;;;;;1.20;1.20;;;4.10;93.70;;;;;;4979709;28;20310;-77
2021/03/05 18:19:25;;;;;;;1.20;1.20;;;4.00;93.60;;;;;;4987129;28;20232;-78
2021/03/05 18:21:51;;;;;;;1.20;1.20;;;4.10;94.00;;;;;;4996561;28;20228;-79